Avao, Samoa

11:11 AM WST on July 24, 2014 (GMT +1300)
Asaga Village, Savaii (ISAVAIIA2) Elev 10 ft | 13.60 °S, 172.21 °W | Change Station

Current weather conditions updated 1 minute ago

Mostly Cloudy
Mostly Cloudy
87.3 °F
Feels Like 95 °F
N
2.2
Wind Variable Wind from North
Gusts 2.2 mph

Today is forecast to be nearly the same temperature as yesterday. Rain with a few rumbles of thunder.

Today
High -- | Low -- °F
--% Chance of Precip.
Yesterday
High -- | Low -- °F
Precip. -- in
6:51 AM 6:19 PM
Waning Crescent, 8% visible
Pressure 29.86 in
Visibility 6.2 miles
Clouds Few 2000 ft
Scattered Clouds 4000 ft
Mostly Cloudy 13000 ft
Heat Index 95 °F
Dew Point 73 °F
Humidity 62%
Rainfall 0.35 in
Snow Depth Not available.
UV 1.0 out of 12
Pollen Not available.
Air Quality Not available.
Flu Activity Not available.
METAR NSFA 232100Z 24005KT 9999 FEW020 SCT040 BKN130 28/26 Q1011

More Conditions Fewer Conditions

Pressure 29.86 in
Visibility 6.2 miles
Clouds Few 2000 ft
Scattered Clouds 4000 ft
Mostly Cloudy 13000 ft
Heat Index 95 °F
Dew Point 73 °F
Humidity 62%
Rainfall 0.35 in
Snow Depth Not available.
UV 1.0 out of 12
Pollen Not available.
Air Quality Not available.
Flu Activity Not available.
METAR NSFA 232100Z 24005KT 9999 FEW020 SCT040 BKN130 28/26 Q1011

More Conditions Fewer Conditions

10-Day Weather Forecast

Almanac

Astronomy

Jul. 24, 2014 Rise Set
Actual Time 6:51 AM WST 6:19 PM WST
Civil Twilight 6:29 AM WST 6:42 PM WST
Nautical Twilight 6:03 AM WST 7:08 PM WST
Astronomical Twilight 5:37 AM WST 7:34 PM WST
Moon 4:18 AM WST (7/24) 4:03 PM WST (7/24)
Length of Visible Light 12h 13m
Length of Day
11h 27m
Tomorrow will be 0m 27s longer.
Waning Crescent, 8% of the Moon is Illuminated
Jul 23
Waning Crescent
Jul 26
New
Aug 3
First Quarter
Aug 10
Full
Aug 17
Last Quarter

Yesterday's Extremes

Country Highs Country Lows

Community

WunderPhotos

Upload Photos

1,736,802 photos uploaded!

Nearby

Snow Depth

Not available.

Earthquake Activity

City Distance Mag. Time & Date
No recent earthquake activity has been reported nearby.
Minimum magnitude displayed is 2.5.

Coastal Water Temperatures

Place Temperature
No Stations Reporting

Nearby Weather Stations

Station Location Temp. Heat Index Dew Point Humidity Wind Precip. Elev Updated Type
Asaga Village, Savaii, Asaga 87.3 °F 95 °F 73 °F 62% North  at  2.2 mph 0.00 in / hr 10 ft 11:10 AM WST Normal

Show More Stations Show Fewer Stations